sensor_id;sensor_type;location;lat;lon;timestamp;temperature;humidity
7399;DHT22;3740;50.700;7.184;2023-05-07T00:02:20;15.00;99.90
7399;DHT22;3740;50.700;7.184;2023-05-07T00:04:46;14.90;99.90
7399;DHT22;3740;50.700;7.184;2023-05-07T00:07:11;14.90;99.90
7399;DHT22;3740;50.700;7.184;2023-05-07T00:09:37;14.80;99.90
7399;DHT22;3740;50.700;7.184;2023-05-07T00:12:02;14.80;99.90
7399;DHT22;3740;50.700;7.184;2023-05-07T00:14:28;14.90;99.90
7399;DHT22;3740;50.700;7.184;2023-05-07T00:16:54;14.90;99.90
7399;DHT22;3740;50.700;7.184;2023-05-07T00:19:20;14.90;99.90
7399;DHT22;3740;50.700;7.184;2023-05-07T00:21:45;14.90;99.90
7399;DHT22;3740;50.700;7.184;2023-05-07T00:24:11;15.00;99.90
7399;DHT22;3740;50.700;7.184;2023-05-07T00:26:37;15.00;99.90
7399;DHT22;3740;50.700;7.184;2023-05-07T00:29:02;14.90;99.90
7399;DHT22;3740;50.700;7.184;2023-05-07T00:31:28;14.80;99.90
7399;DHT22;3740;50.700;7.184;2023-05-07T00:33:53;14.80;99.90
7399;DHT22;3740;50.700;7.184;2023-05-07T00:36:19;14.90;99.90
7399;DHT22;3740;50.700;7.184;2023-05-07T00:38:44;14.90;99.90
7399;DHT22;3740;50.700;7.184;2023-05-07T00:41:10;15.00;99.90
7399;DHT22;3740;50.700;7.184;2023-05-07T00:43:36;15.00;99.90
7399;DHT22;3740;50.700;7.184;2023-05-07T00:46:01;15.10;99.90
7399;DHT22;3740;50.700;7.184;2023-05-07T00:48:27;15.00;99.90
7399;DHT22;3740;50.700;7.184;2023-05-07T00:50:53;15.10;99.90
7399;DHT22;3740;50.700;7.184;2023-05-07T00:53:18;15.10;99.90
7399;DHT22;3740;50.700;7.184;2023-05-07T00:55:44;15.20;99.90
7399;DHT22;3740;50.700;7.184;2023-05-07T00:58:10;15.20;99.90
7399;DHT22;3740;50.700;7.184;2023-05-07T01:00:35;15.20;99.90
7399;DHT22;3740;50.700;7.184;2023-05-07T01:03:01;15.20;99.90
7399;DHT22;3740;50.700;7.184;2023-05-07T01:05:29;15.20;99.90
7399;DHT22;3740;50.700;7.184;2023-05-07T01:07:57;15.10;99.90
7399;DHT22;3740;50.700;7.184;2023-05-07T01:10:23;15.00;99.90
7399;DHT22;3740;50.700;7.184;2023-05-07T01:12:50;15.00;99.90
7399;DHT22;3740;50.700;7.184;2023-05-07T01:15:16;15.00;99.90
7399;DHT22;3740;50.700;7.184;2023-05-07T01:17:42;15.00;99.90
7399;DHT22;3740;50.700;7.184;2023-05-07T01:20:08;15.00;99.90
7399;DHT22;3740;50.700;7.184;2023-05-07T01:22:39;15.10;99.90
7399;DHT22;3740;50.700;7.184;2023-05-07T01:25:06;15.10;99.90
7399;DHT22;3740;50.700;7.184;2023-05-07T01:27:32;15.10;99.90
7399;DHT22;3740;50.700;7.184;2023-05-07T01:30:05;15.10;99.90
7399;DHT22;3740;50.700;7.184;2023-05-07T01:32:48;15.00;99.90
7399;DHT22;3740;50.700;7.184;2023-05-07T01:35:19;15.00;99.90
7399;DHT22;3740;50.700;7.184;2023-05-07T01:37:46;15.00;99.90
7399;DHT22;3740;50.700;7.184;2023-05-07T01:40:13;14.90;99.90
7399;DHT22;3740;50.700;7.184;2023-05-07T01:42:39;14.90;99.90
7399;DHT22;3740;50.700;7.184;2023-05-07T01:45:05;14.90;99.90
7399;DHT22;3740;50.700;7.184;2023-05-07T01:47:32;14.90;99.90
7399;DHT22;3740;50.700;7.184;2023-05-07T01:49:58;14.90;99.90
7399;DHT22;3740;50.700;7.184;2023-05-07T01:52:24;14.90;99.90
7399;DHT22;3740;50.700;7.184;2023-05-07T01:54:50;14.90;99.90
7399;DHT22;3740;50.700;7.184;2023-05-07T01:57:16;14.90;99.90
7399;DHT22;3740;50.700;7.184;2023-05-07T01:59:41;14.90;99.90
7399;DHT22;3740;50.700;7.184;2023-05-07T02:02:07;14.90;99.90
7399;DHT22;3740;50.700;7.184;2023-05-07T02:04:32;14.90;99.90
7399;DHT22;3740;50.700;7.184;2023-05-07T02:06:58;15.00;99.90
7399;DHT22;3740;50.700;7.184;2023-05-07T02:09:23;15.00;99.90
7399;DHT22;3740;50.700;7.184;2023-05-07T02:11:49;15.10;99.90
7399;DHT22;3740;50.700;7.184;2023-05-07T02:14:14;15.10;99.90
7399;DHT22;3740;50.700;7.184;2023-05-07T02:16:41;15.10;99.90
7399;DHT22;3740;50.700;7.184;2023-05-07T02:19:06;15.00;99.90
7399;DHT22;3740;50.700;7.184;2023-05-07T02:21:32;15.00;99.90
7399;DHT22;3740;50.700;7.184;2023-05-07T02:23:57;15.00;99.90
7399;DHT22;3740;50.700;7.184;2023-05-07T02:26:23;14.90;99.90
7399;DHT22;3740;50.700;7.184;2023-05-07T02:28:48;14.90;99.90
7399;DHT22;3740;50.700;7.184;2023-05-07T02:31:14;14.90;99.90
7399;DHT22;3740;50.700;7.184;2023-05-07T02:33:39;14.90;99.90
7399;DHT22;3740;50.700;7.184;2023-05-07T02:36:06;14.80;99.90
7399;DHT22;3740;50.700;7.184;2023-05-07T02:38:33;14.80;99.90
7399;DHT22;3740;50.700;7.184;2023-05-07T02:40:59;14.80;99.90
7399;DHT22;3740;50.700;7.184;2023-05-07T02:43:24;14.80;99.90
7399;DHT22;3740;50.700;7.184;2023-05-07T02:46:00;14.80;99.90
7399;DHT22;3740;50.700;7.184;2023-05-07T02:48:26;14.70;99.90
7399;DHT22;3740;50.700;7.184;2023-05-07T02:50:52;14.80;99.90
7399;DHT22;3740;50.700;7.184;2023-05-07T02:53:18;14.80;99.90
7399;DHT22;3740;50.700;7.184;2023-05-07T02:55:43;14.80;99.90
7399;DHT22;3740;50.700;7.184;2023-05-07T02:58:09;14.80;99.90
7399;DHT22;3740;50.700;7.184;2023-05-07T03:00:34;14.80;99.90
7399;DHT22;3740;50.700;7.184;2023-05-07T03:03:00;14.80;99.90
7399;DHT22;3740;50.700;7.184;2023-05-07T03:05:26;14.70;99.90
7399;DHT22;3740;50.700;7.184;2023-05-07T03:07:51;14.70;99.90
7399;DHT22;3740;50.700;7.184;2023-05-07T03:10:17;14.60;99.90
7399;DHT22;3740;50.700;7.184;2023-05-07T03:12:43;14.60;99.90
7399;DHT22;3740;50.700;7.184;2023-05-07T03:15:09;14.60;99.90
7399;DHT22;3740;50.700;7.184;2023-05-07T03:17:36;14.50;99.90
7399;DHT22;3740;50.700;7.184;2023-05-07T03:20:02;14.50;99.90
7399;DHT22;3740;50.700;7.184;2023-05-07T03:22:28;14.50;99.90
7399;DHT22;3740;50.700;7.184;2023-05-07T03:24:53;14.50;99.90
7399;DHT22;3740;50.700;7.184;2023-05-07T03:27:19;14.50;99.90
7399;DHT22;3740;50.700;7.184;2023-05-07T03:29:44;14.40;99.90
7399;DHT22;3740;50.700;7.184;2023-05-07T03:32:10;14.50;99.90
7399;DHT22;3740;50.700;7.184;2023-05-07T03:34:35;14.50;99.90
7399;DHT22;3740;50.700;7.184;2023-05-07T03:37:01;14.50;99.90
7399;DHT22;3740;50.700;7.184;2023-05-07T03:39:27;14.60;99.90
7399;DHT22;3740;50.700;7.184;2023-05-07T03:41:52;14.60;99.90
7399;DHT22;3740;50.700;7.184;2023-05-07T03:44:18;14.60;99.90
7399;DHT22;3740;50.700;7.184;2023-05-07T03:46:44;14.60;99.90
7399;DHT22;3740;50.700;7.184;2023-05-07T03:49:09;14.60;99.90
7399;DHT22;3740;50.700;7.184;2023-05-07T03:51:35;14.60;99.90
7399;DHT22;3740;50.700;7.184;2023-05-07T03:54:01;14.60;99.90
7399;DHT22;3740;50.700;7.184;2023-05-07T03:56:27;14.60;99.90
7399;DHT22;3740;50.700;7.184;2023-05-07T03:58:53;14.60;99.90
7399;DHT22;3740;50.700;7.184;2023-05-07T04:01:19;14.50;99.90
7399;DHT22;3740;50.700;7.184;2023-05-07T04:03:44;14.50;99.90
7399;DHT22;3740;50.700;7.184;2023-05-07T04:06:10;14.60;99.90
7399;DHT22;3740;50.700;7.184;2023-05-07T04:08:35;14.50;99.90
7399;DHT22;3740;50.700;7.184;2023-05-07T04:11:01;14.50;99.90
7399;DHT22;3740;50.700;7.184;2023-05-07T04:13:27;14.60;99.90
7399;DHT22;3740;50.700;7.184;2023-05-07T04:15:54;14.60;99.90
7399;DHT22;3740;50.700;7.184;2023-05-07T04:18:20;14.60;99.90
7399;DHT22;3740;50.700;7.184;2023-05-07T04:20:47;14.70;99.90
7399;DHT22;3740;50.700;7.184;2023-05-07T04:23:14;14.70;99.90
7399;DHT22;3740;50.700;7.184;2023-05-07T04:25:40;14.70;99.90
7399;DHT22;3740;50.700;7.184;2023-05-07T04:28:06;14.70;99.90
7399;DHT22;3740;50.700;7.184;2023-05-07T04:30:31;14.70;99.90
7399;DHT22;3740;50.700;7.184;2023-05-07T04:32:57;14.70;99.90
7399;DHT22;3740;50.700;7.184;2023-05-07T04:35:23;14.80;99.90
7399;DHT22;3740;50.700;7.184;2023-05-07T04:37:48;14.80;99.90
7399;DHT22;3740;50.700;7.184;2023-05-07T04:40:14;14.80;99.90
7399;DHT22;3740;50.700;7.184;2023-05-07T04:42:39;14.80;99.90
7399;DHT22;3740;50.700;7.184;2023-05-07T04:45:05;14.70;99.90
7399;DHT22;3740;50.700;7.184;2023-05-07T04:47:31;14.80;99.90
7399;DHT22;3740;50.700;7.184;2023-05-07T04:49:57;14.70;99.90
7399;DHT22;3740;50.700;7.184;2023-05-07T04:52:23;14.70;99.90
7399;DHT22;3740;50.700;7.184;2023-05-07T04:54:49;14.80;99.90
7399;DHT22;3740;50.700;7.184;2023-05-07T04:57:14;14.80;99.90
7399;DHT22;3740;50.700;7.184;2023-05-07T04:59:40;14.90;99.90
7399;DHT22;3740;50.700;7.184;2023-05-07T05:02:05;15.00;99.90
7399;DHT22;3740;50.700;7.184;2023-05-07T05:04:31;15.00;99.90
7399;DHT22;3740;50.700;7.184;2023-05-07T05:06:57;15.00;99.90
7399;DHT22;3740;50.700;7.184;2023-05-07T05:09:23;15.00;99.90
7399;DHT22;3740;50.700;7.184;2023-05-07T05:11:48;15.10;99.90
7399;DHT22;3740;50.700;7.184;2023-05-07T05:14:14;15.10;99.90
7399;DHT22;3740;50.700;7.184;2023-05-07T05:16:39;15.10;99.90
7399;DHT22;3740;50.700;7.184;2023-05-07T05:19:05;15.20;99.90
7399;DHT22;3740;50.700;7.184;2023-05-07T05:21:31;15.20;99.90
7399;DHT22;3740;50.700;7.184;2023-05-07T05:23:57;15.30;99.90
7399;DHT22;3740;50.700;7.184;2023-05-07T05:26:23;15.30;99.90
7399;DHT22;3740;50.700;7.184;2023-05-07T05:28:48;15.30;99.90
7399;DHT22;3740;50.700;7.184;2023-05-07T05:31:15;15.30;99.90
7399;DHT22;3740;50.700;7.184;2023-05-07T05:33:41;15.30;99.90
7399;DHT22;3740;50.700;7.184;2023-05-07T05:36:09;15.30;99.90
7399;DHT22;3740;50.700;7.184;2023-05-07T05:38:35;15.30;99.90
7399;DHT22;3740;50.700;7.184;2023-05-07T05:41:01;15.30;99.90
7399;DHT22;3740;50.700;7.184;2023-05-07T05:43:26;15.30;99.90
7399;DHT22;3740;50.700;7.184;2023-05-07T05:45:52;15.30;99.90
7399;DHT22;3740;50.700;7.184;2023-05-07T05:48:17;15.30;99.90
7399;DHT22;3740;50.700;7.184;2023-05-07T05:50:43;15.30;99.90
7399;DHT22;3740;50.700;7.184;2023-05-07T05:53:08;15.30;99.90
7399;DHT22;3740;50.700;7.184;2023-05-07T05:55:34;15.30;99.90
7399;DHT22;3740;50.700;7.184;2023-05-07T05:58:02;15.30;99.90
7399;DHT22;3740;50.700;7.184;2023-05-07T06:00:29;15.30;99.90
7399;DHT22;3740;50.700;7.184;2023-05-07T06:02:55;15.30;99.90
7399;DHT22;3740;50.700;7.184;2023-05-07T06:05:20;15.30;99.90
7399;DHT22;3740;50.700;7.184;2023-05-07T06:07:46;15.40;99.90
7399;DHT22;3740;50.700;7.184;2023-05-07T06:10:11;15.50;99.90
7399;DHT22;3740;50.700;7.184;2023-05-07T06:12:37;15.60;99.90
7399;DHT22;3740;50.700;7.184;2023-05-07T06:15:03;15.60;99.90
7399;DHT22;3740;50.700;7.184;2023-05-07T06:17:28;15.80;99.90
7399;DHT22;3740;50.700;7.184;2023-05-07T06:19:54;15.90;99.90
7399;DHT22;3740;50.700;7.184;2023-05-07T06:22:20;16.10;99.90
7399;DHT22;3740;50.700;7.184;2023-05-07T06:24:45;16.20;99.90
7399;DHT22;3740;50.700;7.184;2023-05-07T06:27:11;16.20;99.90
7399;DHT22;3740;50.700;7.184;2023-05-07T06:29:37;16.30;99.90
7399;DHT22;3740;50.700;7.184;2023-05-07T06:32:06;16.30;99.90
7399;DHT22;3740;50.700;7.184;2023-05-07T06:34:33;16.40;99.90
7399;DHT22;3740;50.700;7.184;2023-05-07T06:36:58;16.40;99.90
7399;DHT22;3740;50.700;7.184;2023-05-07T06:39:24;16.40;99.90
7399;DHT22;3740;50.700;7.184;2023-05-07T06:41:49;16.40;99.90
7399;DHT22;3740;50.700;7.184;2023-05-07T06:44:15;16.50;99.90
7399;DHT22;3740;50.700;7.184;2023-05-07T06:46:41;16.50;99.90
7399;DHT22;3740;50.700;7.184;2023-05-07T06:49:06;16.60;99.90
7399;DHT22;3740;50.700;7.184;2023-05-07T06:51:32;16.60;99.90
7399;DHT22;3740;50.700;7.184;2023-05-07T06:53:58;16.70;99.90
7399;DHT22;3740;50.700;7.184;2023-05-07T06:56:23;16.70;99.90
7399;DHT22;3740;50.700;7.184;2023-05-07T06:58:49;16.80;99.90
7399;DHT22;3740;50.700;7.184;2023-05-07T07:01:15;16.80;99.90
7399;DHT22;3740;50.700;7.184;2023-05-07T07:03:40;16.80;99.90
7399;DHT22;3740;50.700;7.184;2023-05-07T07:06:06;16.80;99.90
7399;DHT22;3740;50.700;7.184;2023-05-07T07:08:32;17.00;99.90
7399;DHT22;3740;50.700;7.184;2023-05-07T07:10:57;16.90;99.90
7399;DHT22;3740;50.700;7.184;2023-05-07T07:13:23;16.80;99.90
7399;DHT22;3740;50.700;7.184;2023-05-07T07:15:48;16.80;99.90
7399;DHT22;3740;50.700;7.184;2023-05-07T07:18:14;16.70;99.90
7399;DHT22;3740;50.700;7.184;2023-05-07T07:20:40;16.70;99.90
7399;DHT22;3740;50.700;7.184;2023-05-07T07:23:06;16.60;99.90
7399;DHT22;3740;50.700;7.184;2023-05-07T07:25:31;16.60;99.90
7399;DHT22;3740;50.700;7.184;2023-05-07T07:27:57;16.60;99.90
7399;DHT22;3740;50.700;7.184;2023-05-07T07:30:23;16.60;99.90
7399;DHT22;3740;50.700;7.184;2023-05-07T07:32:48;16.60;99.90
7399;DHT22;3740;50.700;7.184;2023-05-07T07:35:14;16.70;99.90
7399;DHT22;3740;50.700;7.184;2023-05-07T07:37:39;16.70;99.90
7399;DHT22;3740;50.700;7.184;2023-05-07T07:40:05;16.80;99.90
7399;DHT22;3740;50.700;7.184;2023-05-07T07:42:31;16.90;99.90
7399;DHT22;3740;50.700;7.184;2023-05-07T07:44:57;17.00;99.90
7399;DHT22;3740;50.700;7.184;2023-05-07T07:47:22;17.10;99.90
7399;DHT22;3740;50.700;7.184;2023-05-07T07:49:48;17.20;99.90
7399;DHT22;3740;50.700;7.184;2023-05-07T07:52:14;17.30;99.90
7399;DHT22;3740;50.700;7.184;2023-05-07T07:54:39;17.40;99.90
7399;DHT22;3740;50.700;7.184;2023-05-07T07:57:05;17.50;99.90
7399;DHT22;3740;50.700;7.184;2023-05-07T07:59:30;17.50;99.90
7399;DHT22;3740;50.700;7.184;2023-05-07T08:01:56;17.50;99.90
7399;DHT22;3740;50.700;7.184;2023-05-07T08:04:22;17.50;99.90
7399;DHT22;3740;50.700;7.184;2023-05-07T08:06:48;17.60;99.90
7399;DHT22;3740;50.700;7.184;2023-05-07T08:09:14;17.60;99.90
7399;DHT22;3740;50.700;7.184;2023-05-07T08:11:39;17.70;99.90
7399;DHT22;3740;50.700;7.184;2023-05-07T08:14:05;17.60;99.90
7399;DHT22;3740;50.700;7.184;2023-05-07T08:16:31;17.60;99.90
7399;DHT22;3740;50.700;7.184;2023-05-07T08:18:56;17.70;99.90
7399;DHT22;3740;50.700;7.184;2023-05-07T08:21:23;17.80;99.90
7399;DHT22;3740;50.700;7.184;2023-05-07T08:23:49;17.90;99.90
7399;DHT22;3740;50.700;7.184;2023-05-07T08:26:14;17.90;99.90
7399;DHT22;3740;50.700;7.184;2023-05-07T08:28:40;18.00;99.90
7399;DHT22;3740;50.700;7.184;2023-05-07T08:31:05;18.10;99.90
7399;DHT22;3740;50.700;7.184;2023-05-07T08:33:31;18.20;99.90
7399;DHT22;3740;50.700;7.184;2023-05-07T08:35:57;18.30;99.90
7399;DHT22;3740;50.700;7.184;2023-05-07T08:38:22;18.40;99.90
7399;DHT22;3740;50.700;7.184;2023-05-07T08:40:48;18.50;99.90
7399;DHT22;3740;50.700;7.184;2023-05-07T08:43:14;18.60;99.90
7399;DHT22;3740;50.700;7.184;2023-05-07T08:45:40;18.80;99.90
7399;DHT22;3740;50.700;7.184;2023-05-07T08:48:14;18.90;99.90
7399;DHT22;3740;50.700;7.184;2023-05-07T08:50:40;19.10;99.90
7399;DHT22;3740;50.700;7.184;2023-05-07T08:53:06;19.00;99.90
7399;DHT22;3740;50.700;7.184;2023-05-07T08:55:31;19.00;99.90
7399;DHT22;3740;50.700;7.184;2023-05-07T08:57:59;19.00;99.90
7399;DHT22;3740;50.700;7.184;2023-05-07T09:00:25;19.10;99.90
7399;DHT22;3740;50.700;7.184;2023-05-07T09:02:52;19.20;99.90
7399;DHT22;3740;50.700;7.184;2023-05-07T09:05:18;19.30;99.90
7399;DHT22;3740;50.700;7.184;2023-05-07T09:07:43;19.50;99.90
7399;DHT22;3740;50.700;7.184;2023-05-07T09:10:09;19.50;99.90
7399;DHT22;3740;50.700;7.184;2023-05-07T09:12:35;19.70;99.90
7399;DHT22;3740;50.700;7.184;2023-05-07T09:15:01;19.80;99.90
7399;DHT22;3740;50.700;7.184;2023-05-07T09:17:28;19.80;99.90
7399;DHT22;3740;50.700;7.184;2023-05-07T09:19:54;19.80;99.90
7399;DHT22;3740;50.700;7.184;2023-05-07T09:22:19;20.00;99.90
7399;DHT22;3740;50.700;7.184;2023-05-07T09:24:49;20.10;99.90
7399;DHT22;3740;50.700;7.184;2023-05-07T09:27:15;20.10;99.90
7399;DHT22;3740;50.700;7.184;2023-05-07T09:29:41;20.20;99.90
7399;DHT22;3740;50.700;7.184;2023-05-07T09:32:07;20.30;99.90
7399;DHT22;3740;50.700;7.184;2023-05-07T09:34:34;20.30;99.90
7399;DHT22;3740;50.700;7.184;2023-05-07T09:37:04;20.30;99.90
7399;DHT22;3740;50.700;7.184;2023-05-07T09:39:42;20.40;99.90
7399;DHT22;3740;50.700;7.184;2023-05-07T09:42:07;20.40;99.90
7399;DHT22;3740;50.700;7.184;2023-05-07T09:44:34;20.40;99.90
7399;DHT22;3740;50.700;7.184;2023-05-07T09:47:00;20.30;99.90
7399;DHT22;3740;50.700;7.184;2023-05-07T09:49:29;20.40;99.90
7399;DHT22;3740;50.700;7.184;2023-05-07T09:51:56;20.50;99.90
7399;DHT22;3740;50.700;7.184;2023-05-07T09:54:24;20.50;99.90
7399;DHT22;3740;50.700;7.184;2023-05-07T09:56:52;20.60;99.90
7399;DHT22;3740;50.700;7.184;2023-05-07T09:59:18;20.60;99.90
7399;DHT22;3740;50.700;7.184;2023-05-07T10:01:45;20.60;99.90
7399;DHT22;3740;50.700;7.184;2023-05-07T10:04:11;20.80;99.90
7399;DHT22;3740;50.700;7.184;2023-05-07T10:06:38;20.80;99.90
7399;DHT22;3740;50.700;7.184;2023-05-07T10:09:04;20.70;99.90
7399;DHT22;3740;50.700;7.184;2023-05-07T10:11:34;20.80;99.90
7399;DHT22;3740;50.700;7.184;2023-05-07T10:14:04;20.90;99.90
7399;DHT22;3740;50.700;7.184;2023-05-07T10:16:35;21.10;99.90
7399;DHT22;3740;50.700;7.184;2023-05-07T10:19:05;21.20;99.90
7399;DHT22;3740;50.700;7.184;2023-05-07T10:21:36;21.30;99.90
7399;DHT22;3740;50.700;7.184;2023-05-07T10:24:09;21.20;99.90
7399;DHT22;3740;50.700;7.184;2023-05-07T10:26:42;21.10;99.90
7399;DHT22;3740;50.700;7.184;2023-05-07T10:29:14;21.20;99.90
7399;DHT22;3740;50.700;7.184;2023-05-07T10:31:44;21.50;99.90
7399;DHT22;3740;50.700;7.184;2023-05-07T10:34:16;21.40;99.90
7399;DHT22;3740;50.700;7.184;2023-05-07T10:36:43;21.60;99.90
7399;DHT22;3740;50.700;7.184;2023-05-07T10:39:09;21.70;99.90
7399;DHT22;3740;50.700;7.184;2023-05-07T10:41:35;21.80;99.90
7399;DHT22;3740;50.700;7.184;2023-05-07T10:44:02;22.00;99.90
7399;DHT22;3740;50.700;7.184;2023-05-07T10:46:28;22.10;99.90
7399;DHT22;3740;50.700;7.184;2023-05-07T10:51:29;22.40;99.90
7399;DHT22;3740;50.700;7.184;2023-05-07T10:56:42;22.70;99.90
7399;DHT22;3740;50.700;7.184;2023-05-07T11:01:50;23.60;99.90
7399;DHT22;3740;50.700;7.184;2023-05-07T11:04:17;24.40;99.90
7399;DHT22;3740;50.700;7.184;2023-05-07T11:07:21;24.70;99.90
7399;DHT22;3740;50.700;7.184;2023-05-07T11:10:01;26.10;99.90
7399;DHT22;3740;50.700;7.184;2023-05-07T11:15:05;27.40;99.90
7399;DHT22;3740;50.700;7.184;2023-05-07T11:17:32;28.60;99.80
7399;DHT22;3740;50.700;7.184;2023-05-07T11:20:00;29.80;99.20
7399;DHT22;3740;50.700;7.184;2023-05-07T11:25:02;31.10;92.50
7399;DHT22;3740;50.700;7.184;2023-05-07T11:27:28;30.80;91.70
7399;DHT22;3740;50.700;7.184;2023-05-07T11:29:54;30.40;91.60
7399;DHT22;3740;50.700;7.184;2023-05-07T11:32:27;29.50;89.10
7399;DHT22;3740;50.700;7.184;2023-05-07T11:34:54;28.30;89.20
7399;DHT22;3740;50.700;7.184;2023-05-07T11:37:20;28.10;90.00
7399;DHT22;3740;50.700;7.184;2023-05-07T11:39:46;27.90;90.20
7399;DHT22;3740;50.700;7.184;2023-05-07T11:42:33;28.20;93.60
7399;DHT22;3740;50.700;7.184;2023-05-07T11:45:00;28.60;95.70
7399;DHT22;3740;50.700;7.184;2023-05-07T11:47:26;29.00;94.30
7399;DHT22;3740;50.700;7.184;2023-05-07T11:49:53;29.00;94.40
7399;DHT22;3740;50.700;7.184;2023-05-07T11:52:20;29.00;94.50
7399;DHT22;3740;50.700;7.184;2023-05-07T11:54:53;28.80;93.20
7399;DHT22;3740;50.700;7.184;2023-05-07T11:57:23;28.60;93.70
7399;DHT22;3740;50.700;7.184;2023-05-07T11:59:59;27.90;95.10
7399;DHT22;3740;50.700;7.184;2023-05-07T12:02:25;27.30;95.80
7399;DHT22;3740;50.700;7.184;2023-05-07T12:04:52;26.60;97.00
7399;DHT22;3740;50.700;7.184;2023-05-07T12:07:18;26.10;97.50
7399;DHT22;3740;50.700;7.184;2023-05-07T12:09:44;25.90;99.70
7399;DHT22;3740;50.700;7.184;2023-05-07T12:12:10;26.70;99.50
7399;DHT22;3740;50.700;7.184;2023-05-07T12:14:43;27.50;97.60
7399;DHT22;3740;50.700;7.184;2023-05-07T12:17:11;27.80;95.70
7399;DHT22;3740;50.700;7.184;2023-05-07T12:19:37;27.90;95.80
7399;DHT22;3740;50.700;7.184;2023-05-07T12:22:04;28.10;96.20
7399;DHT22;3740;50.700;7.184;2023-05-07T12:24:48;28.00;94.60
7399;DHT22;3740;50.700;7.184;2023-05-07T12:27:14;28.10;92.70
7399;DHT22;3740;50.700;7.184;2023-05-07T12:29:44;28.10;94.30
7399;DHT22;3740;50.700;7.184;2023-05-07T12:32:15;27.80;93.30
7399;DHT22;3740;50.700;7.184;2023-05-07T12:34:41;27.50;95.40
7399;DHT22;3740;50.700;7.184;2023-05-07T12:37:06;27.70;95.40
7399;DHT22;3740;50.700;7.184;2023-05-07T12:39:32;28.10;95.60
7399;DHT22;3740;50.700;7.184;2023-05-07T12:41:59;28.60;92.90
7399;DHT22;3740;50.700;7.184;2023-05-07T12:44:28;28.90;92.70
7399;DHT22;3740;50.700;7.184;2023-05-07T12:46:54;28.60;92.60
7399;DHT22;3740;50.700;7.184;2023-05-07T12:49:20;28.20;93.40
7399;DHT22;3740;50.700;7.184;2023-05-07T12:51:49;28.10;92.60
7399;DHT22;3740;50.700;7.184;2023-05-07T12:54:28;28.00;93.00
7399;DHT22;3740;50.700;7.184;2023-05-07T12:57:10;28.50;94.40
7399;DHT22;3740;50.700;7.184;2023-05-07T12:59:42;29.40;91.70
7399;DHT22;3740;50.700;7.184;2023-05-07T13:02:08;29.80;91.20
7399;DHT22;3740;50.700;7.184;2023-05-07T13:04:34;30.20;86.40
7399;DHT22;3740;50.700;7.184;2023-05-07T13:07:01;30.50;85.20
7399;DHT22;3740;50.700;7.184;2023-05-07T13:09:26;30.50;87.00
7399;DHT22;3740;50.700;7.184;2023-05-07T13:11:54;30.50;86.80
7399;DHT22;3740;50.700;7.184;2023-05-07T13:14:20;31.00;86.90
7399;DHT22;3740;50.700;7.184;2023-05-07T13:16:46;31.20;85.60
7399;DHT22;3740;50.700;7.184;2023-05-07T13:19:12;31.20;85.00
7399;DHT22;3740;50.700;7.184;2023-05-07T13:21:38;31.20;84.60
7399;DHT22;3740;50.700;7.184;2023-05-07T13:24:03;30.90;83.70
7399;DHT22;3740;50.700;7.184;2023-05-07T13:26:30;30.40;84.60
7399;DHT22;3740;50.700;7.184;2023-05-07T13:28:56;29.80;89.00
7399;DHT22;3740;50.700;7.184;2023-05-07T13:31:22;29.70;86.20
7399;DHT22;3740;50.700;7.184;2023-05-07T13:33:48;29.60;89.10
7399;DHT22;3740;50.700;7.184;2023-05-07T13:36:14;29.10;91.60
7399;DHT22;3740;50.700;7.184;2023-05-07T13:38:40;28.70;91.90
7399;DHT22;3740;50.700;7.184;2023-05-07T13:41:05;28.40;91.30
7399;DHT22;3740;50.700;7.184;2023-05-07T13:43:31;27.60;93.80
7399;DHT22;3740;50.700;7.184;2023-05-07T13:45:59;27.70;95.30
7399;DHT22;3740;50.700;7.184;2023-05-07T13:48:24;27.50;96.00
7399;DHT22;3740;50.700;7.184;2023-05-07T13:50:50;27.50;95.90
7399;DHT22;3740;50.700;7.184;2023-05-07T13:53:16;27.40;95.10
7399;DHT22;3740;50.700;7.184;2023-05-07T13:55:43;27.50;95.30
7399;DHT22;3740;50.700;7.184;2023-05-07T13:58:09;27.00;94.60
7399;DHT22;3740;50.700;7.184;2023-05-07T14:00:35;26.40;96.60
7399;DHT22;3740;50.700;7.184;2023-05-07T14:03:01;26.00;97.50
7399;DHT22;3740;50.700;7.184;2023-05-07T14:05:26;25.50;98.40
7399;DHT22;3740;50.700;7.184;2023-05-07T14:07:54;25.00;99.60
7399;DHT22;3740;50.700;7.184;2023-05-07T14:10:19;24.60;99.90
7399;DHT22;3740;50.700;7.184;2023-05-07T14:12:46;24.20;99.90
7399;DHT22;3740;50.700;7.184;2023-05-07T14:15:12;23.90;99.90
7399;DHT22;3740;50.700;7.184;2023-05-07T14:17:38;23.60;99.90
7399;DHT22;3740;50.700;7.184;2023-05-07T14:20:04;23.30;99.90
7399;DHT22;3740;50.700;7.184;2023-05-07T14:22:31;23.00;99.90
7399;DHT22;3740;50.700;7.184;2023-05-07T14:24:57;22.70;99.90
7399;DHT22;3740;50.700;7.184;2023-05-07T14:27:22;22.50;99.90
7399;DHT22;3740;50.700;7.184;2023-05-07T14:29:48;22.40;99.90
7399;DHT22;3740;50.700;7.184;2023-05-07T14:32:17;22.30;99.90
7399;DHT22;3740;50.700;7.184;2023-05-07T14:34:43;22.10;99.90
7399;DHT22;3740;50.700;7.184;2023-05-07T14:37:09;21.90;99.90
7399;DHT22;3740;50.700;7.184;2023-05-07T14:39:35;21.60;99.90
7399;DHT22;3740;50.700;7.184;2023-05-07T14:42:01;21.30;99.90
7399;DHT22;3740;50.700;7.184;2023-05-07T14:44:27;21.10;99.90
7399;DHT22;3740;50.700;7.184;2023-05-07T14:46:53;20.90;99.90
7399;DHT22;3740;50.700;7.184;2023-05-07T14:49:18;20.70;99.90
7399;DHT22;3740;50.700;7.184;2023-05-07T14:51:44;20.60;99.90
7399;DHT22;3740;50.700;7.184;2023-05-07T14:54:11;20.60;99.90
7399;DHT22;3740;50.700;7.184;2023-05-07T14:56:36;20.50;99.90
7399;DHT22;3740;50.700;7.184;2023-05-07T14:59:02;20.40;99.90
7399;DHT22;3740;50.700;7.184;2023-05-07T15:01:28;20.30;99.90
7399;DHT22;3740;50.700;7.184;2023-05-07T15:03:54;20.20;99.90
7399;DHT22;3740;50.700;7.184;2023-05-07T15:06:20;20.10;99.90
7399;DHT22;3740;50.700;7.184;2023-05-07T15:08:46;20.00;99.90
7399;DHT22;3740;50.700;7.184;2023-05-07T15:11:11;20.00;99.90
7399;DHT22;3740;50.700;7.184;2023-05-07T15:13:37;19.90;99.90
7399;DHT22;3740;50.700;7.184;2023-05-07T15:16:02;19.80;99.90
7399;DHT22;3740;50.700;7.184;2023-05-07T15:18:28;19.70;99.90
7399;DHT22;3740;50.700;7.184;2023-05-07T15:20:54;19.70;99.90
7399;DHT22;3740;50.700;7.184;2023-05-07T15:23:20;19.60;99.90
7399;DHT22;3740;50.700;7.184;2023-05-07T15:25:46;19.50;99.90
7399;DHT22;3740;50.700;7.184;2023-05-07T15:28:11;19.40;99.90
7399;DHT22;3740;50.700;7.184;2023-05-07T15:30:37;19.40;99.90
7399;DHT22;3740;50.700;7.184;2023-05-07T15:33:02;19.20;99.90
7399;DHT22;3740;50.700;7.184;2023-05-07T15:35:28;19.10;99.90
7399;DHT22;3740;50.700;7.184;2023-05-07T15:37:54;19.10;99.90
7399;DHT22;3740;50.700;7.184;2023-05-07T15:40:20;19.00;99.90
7399;DHT22;3740;50.700;7.184;2023-05-07T15:42:46;19.00;99.90
7399;DHT22;3740;50.700;7.184;2023-05-07T15:45:12;18.90;99.90
7399;DHT22;3740;50.700;7.184;2023-05-07T15:47:38;18.90;99.90
7399;DHT22;3740;50.700;7.184;2023-05-07T15:50:03;18.90;99.90
7399;DHT22;3740;50.700;7.184;2023-05-07T15:52:29;18.80;99.90
7399;DHT22;3740;50.700;7.184;2023-05-07T15:54:56;18.80;99.90
7399;DHT22;3740;50.700;7.184;2023-05-07T15:57:22;18.80;99.90
7399;DHT22;3740;50.700;7.184;2023-05-07T15:59:48;18.70;99.90
7399;DHT22;3740;50.700;7.184;2023-05-07T16:02:14;18.70;99.90
7399;DHT22;3740;50.700;7.184;2023-05-07T16:04:40;18.70;99.90
7399;DHT22;3740;50.700;7.184;2023-05-07T16:07:06;18.60;99.90
7399;DHT22;3740;50.700;7.184;2023-05-07T16:09:32;18.60;99.90
7399;DHT22;3740;50.700;7.184;2023-05-07T16:11:59;18.50;99.90